createdAt,value
2022-12-27T00:02:11.842Z,0.82
2022-12-27T00:04:42.323Z,0.80
2022-12-27T00:07:12.881Z,0.70
2022-12-27T00:09:44.473Z,0.80
2022-12-27T00:12:16.205Z,0.60
2022-12-27T00:14:47.850Z,1.10
2022-12-27T00:17:18.384Z,1.17
2022-12-27T00:19:48.911Z,0.80
2022-12-27T00:22:19.642Z,0.90
2022-12-27T00:24:51.582Z,0.75
2022-12-27T00:27:22.103Z,0.82
2022-12-27T00:29:52.671Z,1.62
2022-12-27T00:32:24.361Z,1.10
2022-12-27T00:34:54.803Z,1.20
2022-12-27T00:37:26.520Z,0.98
2022-12-27T00:39:56.956Z,1.10
2022-12-27T00:42:27.419Z,1.10
2022-12-27T00:44:57.956Z,1.05
2022-12-27T00:47:29.677Z,1.10
2022-12-27T00:50:00.167Z,0.90
2022-12-27T00:52:32.102Z,1.12
2022-12-27T00:55:02.647Z,1.07
2022-12-27T00:57:34.343Z,0.82
2022-12-27T01:00:10.304Z,0.72
2022-12-27T01:02:39.554Z,0.93
2022-12-27T01:05:10.336Z,0.88
2022-12-27T01:07:40.782Z,0.90
2022-12-27T01:10:11.830Z,0.98
2022-12-27T01:12:42.344Z,1.10
2022-12-27T01:15:13.704Z,0.80
2022-12-27T01:17:45.301Z,1.00
2022-12-27T01:20:15.835Z,1.05
2022-12-27T01:22:46.400Z,0.93
2022-12-27T01:25:16.895Z,0.90
2022-12-27T01:27:47.636Z,0.93
2022-12-27T01:30:18.099Z,0.93
2022-12-27T01:32:49.759Z,0.90
2022-12-27T01:35:20.214Z,0.93
2022-12-27T01:37:52.535Z,1.10
2022-12-27T01:40:24.208Z,1.42
2022-12-27T01:42:55.829Z,1.42
2022-12-27T01:45:29.825Z,1.40
2022-12-27T01:48:15.338Z,1.30
2022-12-27T01:50:52.345Z,1.10
2022-12-27T01:53:25.924Z,1.62
2022-12-27T01:56:03.402Z,1.63
2022-12-27T01:58:45.698Z,1.40
2022-12-27T02:01:21.970Z,1.40
2022-12-27T02:04:02.557Z,1.40
2022-12-27T02:06:35.803Z,1.77
2022-12-27T02:09:24.042Z,1.30
2022-12-27T02:11:57.500Z,1.32
2022-12-27T02:14:33.617Z,1.22
2022-12-27T02:17:12.880Z,1.70
2022-12-27T02:19:50.105Z,1.12
2022-12-27T02:23:02.165Z,1.40
2022-12-27T02:25:53.416Z,1.60
2022-12-27T02:28:30.104Z,1.50
2022-12-27T02:31:12.131Z,1.40
2022-12-27T02:33:46.086Z,1.32
2022-12-27T02:36:26.251Z,1.57
2022-12-27T02:39:01.394Z,1.30
2022-12-27T02:41:55.165Z,2.02
2022-12-27T02:44:46.736Z,1.52
2022-12-27T02:47:42.823Z,1.47
2022-12-27T02:50:35.572Z,1.60
2022-12-27T02:53:23.193Z,1.50
2022-12-27T02:56:32.337Z,1.60
2022-12-27T02:59:43.514Z,1.80
2022-12-27T03:02:44.290Z,1.42
2022-12-27T03:05:23.440Z,1.30
2022-12-27T03:07:58.981Z,1.45
2022-12-27T03:14:24.427Z,1.35
2022-12-27T03:17:01.565Z,1.85
2022-12-27T03:20:12.026Z,1.45
2022-12-27T03:23:05.802Z,1.45
2022-12-27T03:25:42.034Z,1.60
2022-12-27T03:28:36.248Z,2.02
2022-12-27T03:33:48.904Z,1.40
2022-12-27T03:36:40.232Z,2.12
2022-12-27T03:39:31.321Z,2.02
2022-12-27T03:42:23.176Z,1.50
2022-12-27T03:44:54.173Z,1.65
2022-12-27T03:47:45.460Z,1.85
2022-12-27T03:50:30.663Z,2.00
2022-12-27T03:53:20.097Z,2.00
2022-12-27T03:55:51.028Z,1.90
2022-12-27T03:58:21.681Z,1.75
2022-12-27T04:00:52.367Z,1.85
2022-12-27T04:03:24.164Z,1.80
2022-12-27T04:05:54.776Z,1.75
2022-12-27T04:08:43.155Z,1.67
2022-12-27T04:11:32.911Z,2.00
2022-12-27T04:14:21.621Z,1.60
2022-12-27T04:17:11.121Z,1.92
2022-12-27T04:19:59.521Z,1.98
2022-12-27T04:22:47.779Z,1.82
2022-12-27T04:25:37.283Z,2.05
2022-12-27T04:28:25.658Z,1.62
2022-12-27T04:31:14.325Z,2.22
2022-12-27T04:34:02.916Z,1.95
2022-12-27T04:36:34.496Z,1.95
2022-12-27T04:39:05.611Z,2.10
2022-12-27T04:41:53.857Z,1.70
2022-12-27T04:44:42.520Z,1.62
2022-12-27T04:47:35.966Z,1.50
2022-12-27T04:50:30.992Z,1.62
2022-12-27T04:53:19.212Z,1.65
2022-12-27T04:55:49.685Z,1.60
2022-12-27T04:58:20.124Z,1.70
2022-12-27T05:01:14.115Z,1.72
2022-12-27T05:03:43.279Z,2.00
2022-12-27T05:06:15.294Z,1.65
2022-12-27T05:09:04.141Z,1.70
2022-12-27T05:11:52.699Z,1.60
2022-12-27T05:14:23.324Z,2.08
2022-12-27T05:16:53.774Z,2.05
2022-12-27T05:19:25.411Z,2.10
2022-12-27T05:22:15.150Z,2.52
2022-12-27T05:25:03.551Z,2.05
2022-12-27T05:27:35.427Z,1.98
2022-12-27T05:30:06.437Z,1.98
2022-12-27T05:32:38.265Z,1.90
2022-12-27T05:35:09.454Z,1.77
2022-12-27T05:37:39.939Z,1.62
2022-12-27T05:40:11.838Z,2.12
2022-12-27T05:42:42.299Z,2.02
2022-12-27T05:45:14.421Z,2.27
2022-12-27T05:47:46.478Z,1.87
2022-12-27T05:50:17.064Z,2.00
2022-12-27T05:52:48.853Z,1.92
2022-12-27T05:55:19.657Z,1.90
2022-12-27T05:57:50.175Z,1.80
2022-12-27T06:00:20.849Z,1.87
2022-12-27T06:02:52.626Z,1.75
2022-12-27T06:05:24.601Z,1.80
2022-12-27T06:07:55.100Z,1.90
2022-12-27T06:10:25.577Z,1.77
2022-12-27T06:12:57.224Z,1.92
2022-12-27T06:15:29.065Z,1.90
2022-12-27T06:18:03.235Z,1.50
2022-12-27T06:20:33.703Z,2.45
2022-12-27T06:23:04.429Z,1.87
2022-12-27T06:25:34.985Z,1.80
2022-12-27T06:28:05.748Z,1.72
2022-12-27T06:30:36.592Z,1.42
2022-12-27T06:33:07.187Z,1.90
2022-12-27T06:35:38.865Z,1.60
2022-12-27T06:38:09.361Z,1.70
2022-12-27T06:40:41.110Z,1.85
2022-12-27T06:43:12.820Z,2.02
2022-12-27T06:45:43.343Z,1.80
2022-12-27T06:48:15.079Z,1.95
2022-12-27T06:50:45.520Z,1.62
2022-12-27T06:53:16.304Z,1.90
2022-12-27T06:55:46.760Z,1.87
2022-12-27T06:58:17.449Z,1.92
2022-12-27T07:00:48.027Z,1.60
2022-12-27T07:03:19.810Z,1.90
2022-12-27T07:05:50.349Z,2.02
2022-12-27T07:08:22.145Z,1.87
2022-12-27T07:10:53.874Z,2.17
2022-12-27T07:13:25.536Z,1.70
2022-12-27T07:15:57.254Z,2.37
2022-12-27T07:18:27.731Z,1.87
2022-12-27T07:20:58.205Z,1.90
2022-12-27T07:23:30.042Z,1.95
2022-12-27T07:26:05.617Z,2.40
2022-12-27T07:28:36.345Z,1.90
2022-12-27T07:31:18.952Z,1.98
2022-12-27T07:33:49.716Z,1.80
2022-12-27T07:36:23.401Z,1.98
2022-12-27T07:38:54.480Z,1.92
2022-12-27T07:41:26.570Z,1.90
2022-12-27T07:43:57.047Z,2.00
2022-12-27T07:46:28.028Z,1.70
2022-12-27T07:48:59.973Z,2.17
2022-12-27T07:51:31.752Z,2.05
2022-12-27T07:54:02.272Z,1.65
2022-12-27T07:56:33.961Z,1.80
2022-12-27T07:59:04.695Z,2.33
2022-12-27T08:01:54.838Z,2.08
2022-12-27T08:04:25.528Z,1.60
2022-12-27T08:07:07.545Z,1.75
2022-12-27T08:09:40.926Z,2.35
2022-12-27T08:12:14.619Z,2.80
2022-12-27T08:14:46.360Z,2.98
2022-12-27T08:17:22.571Z,2.33
2022-12-27T08:19:57.593Z,2.15
2022-12-27T08:22:31.462Z,2.30
2022-12-27T08:25:03.331Z,2.10
2022-12-27T08:27:33.959Z,2.30
2022-12-27T08:30:04.815Z,1.75
2022-12-27T08:32:35.677Z,2.35
2022-12-27T08:35:33.411Z,3.02
2022-12-27T08:37:41.171Z,2.20
2022-12-27T08:40:13.227Z,2.22
2022-12-27T08:42:43.655Z,2.08
2022-12-27T08:45:14.388Z,2.17
2022-12-27T08:47:45.980Z,2.22
2022-12-27T08:50:16.490Z,2.12
2022-12-27T08:52:47.013Z,2.50
2022-12-27T08:55:17.591Z,2.27
2022-12-27T08:57:48.461Z,2.30
2022-12-27T09:00:20.256Z,2.25
2022-12-27T09:02:50.784Z,2.60
2022-12-27T09:05:22.325Z,2.45
2022-12-27T09:07:54.373Z,2.08
2022-12-27T09:10:25.668Z,2.30
2022-12-27T09:12:56.987Z,2.17
2022-12-27T09:15:28.746Z,2.55
2022-12-27T09:18:00.325Z,2.10
2022-12-27T09:20:30.825Z,2.12
2022-12-27T09:23:01.340Z,2.50
2022-12-27T09:25:33.130Z,2.42
2022-12-27T09:28:04.921Z,2.50
2022-12-27T09:30:35.439Z,2.35
2022-12-27T09:33:05.954Z,2.27
2022-12-27T09:35:38.752Z,2.58
2022-12-27T09:38:09.298Z,2.75
2022-12-27T09:40:39.814Z,2.42
2022-12-27T09:43:22.351Z,2.33
2022-12-27T09:45:50.274Z,2.25
2022-12-27T09:48:32.764Z,2.60
2022-12-27T09:51:05.453Z,2.15
2022-12-27T09:53:44.965Z,2.90
2022-12-27T09:56:19.607Z,2.27
2022-12-27T09:58:55.749Z,2.65
2022-12-27T10:01:29.269Z,2.30
2022-12-27T10:04:01.042Z,2.30
2022-12-27T10:06:46.015Z,2.70
2022-12-27T10:09:53.034Z,2.70
2022-12-27T10:12:31.801Z,2.77
2022-12-27T10:15:04.674Z,2.65
2022-12-27T10:17:53.305Z,2.00
2022-12-27T10:20:43.538Z,2.30
2022-12-27T10:23:19.479Z,2.20
2022-12-27T10:25:52.815Z,2.30
2022-12-27T10:28:28.038Z,2.60
2022-12-27T10:31:00.653Z,2.35
2022-12-27T10:33:33.601Z,2.33
2022-12-27T10:36:07.282Z,2.55
2022-12-27T10:38:37.829Z,2.75
2022-12-27T10:41:11.187Z,2.70
2022-12-27T10:43:45.687Z,2.80
2022-12-27T10:46:19.667Z,2.65
2022-12-27T10:51:40.488Z,2.25
2022-12-27T10:54:26.113Z,3.27
2022-12-27T10:57:00.105Z,2.83
2022-12-27T10:59:31.385Z,3.00
2022-12-27T11:02:05.464Z,2.60
2022-12-27T11:04:36.146Z,2.72
2022-12-27T11:07:12.875Z,2.77
2022-12-27T11:09:51.196Z,2.33
2022-12-27T11:12:25.947Z,2.87
2022-12-27T11:15:08.560Z,2.60
2022-12-27T11:17:47.704Z,2.67
2022-12-27T11:20:23.899Z,2.67
2022-12-27T11:23:00.285Z,3.58
2022-12-27T11:25:32.699Z,2.75
2022-12-27T11:28:09.112Z,2.40
2022-12-27T11:30:42.694Z,2.80
2022-12-27T11:33:27.658Z,2.20
2022-12-27T11:36:01.038Z,2.50
2022-12-27T11:38:35.084Z,2.53
2022-12-27T11:41:12.209Z,2.70
2022-12-27T11:43:55.305Z,2.42
2022-12-27T11:46:31.934Z,2.75
2022-12-27T11:49:06.359Z,2.55
2022-12-27T11:52:02.415Z,2.45
2022-12-27T11:54:44.716Z,2.17
2022-12-27T11:57:44.049Z,2.58
2022-12-27T12:00:23.142Z,2.87
2022-12-27T12:03:08.724Z,2.50
2022-12-27T12:06:09.862Z,2.20
2022-12-27T12:08:59.544Z,1.82
2022-12-27T12:11:38.537Z,1.85
2022-12-27T12:14:34.634Z,2.12
2022-12-27T12:17:11.055Z,2.55
2022-12-27T12:20:11.043Z,2.22
2022-12-27T12:22:51.504Z,2.25
2022-12-27T12:25:47.795Z,2.47
2022-12-27T12:31:16.645Z,2.20
2022-12-27T12:34:07.787Z,2.45
2022-12-27T12:36:42.395Z,1.87
2022-12-27T12:39:50.384Z,2.25
2022-12-27T12:45:03.503Z,2.40
2022-12-27T12:47:39.721Z,2.10
2022-12-27T12:50:15.856Z,2.17
2022-12-27T12:52:50.426Z,2.12
2022-12-27T12:55:39.110Z,2.58
2022-12-27T12:58:18.468Z,2.22
2022-12-27T13:01:25.042Z,2.27
2022-12-27T13:04:21.192Z,2.50
2022-12-27T13:07:12.699Z,2.00
2022-12-27T13:10:12.914Z,2.83
2022-12-27T13:13:01.818Z,2.45
2022-12-27T13:15:54.627Z,2.42
2022-12-27T13:18:49.014Z,2.65
2022-12-27T13:21:42.946Z,2.67
2022-12-27T13:24:29.733Z,2.58
2022-12-27T13:27:16.577Z,2.80
2022-12-27T13:29:54.220Z,2.20
2022-12-27T13:32:34.762Z,2.20
2022-12-27T13:35:20.198Z,2.05
2022-12-27T13:38:00.777Z,2.20
2022-12-27T13:41:01.317Z,2.30
2022-12-27T13:44:03.350Z,2.42
2022-12-27T13:46:49.312Z,2.33
2022-12-27T13:49:34.847Z,2.40
2022-12-27T13:52:11.024Z,2.52
2022-12-27T13:55:21.099Z,2.42
2022-12-27T13:58:15.676Z,2.37
2022-12-27T14:00:57.986Z,2.30
2022-12-27T14:03:34.295Z,2.37
2022-12-27T14:06:22.876Z,2.30
2022-12-27T14:09:29.531Z,2.17
2022-12-27T14:14:39.988Z,2.55
2022-12-27T14:17:25.341Z,2.50
2022-12-27T14:20:01.507Z,2.77
2022-12-27T14:22:55.903Z,2.45
2022-12-27T14:25:52.291Z,2.85
2022-12-27T14:28:31.724Z,2.40
2022-12-27T14:31:20.137Z,2.58
2022-12-27T14:34:16.378Z,2.08
2022-12-27T14:39:44.543Z,2.40
2022-12-27T14:42:34.119Z,2.58
2022-12-27T14:45:34.900Z,2.12
2022-12-27T14:48:28.806Z,2.83
2022-12-27T14:51:59.309Z,2.50
2022-12-27T14:54:25.627Z,2.70
2022-12-27T14:57:27.459Z,2.58
2022-12-27T14:59:59.634Z,2.92
2022-12-27T15:02:56.108Z,2.40
2022-12-27T15:05:41.750Z,2.12
2022-12-27T15:08:33.511Z,2.52
2022-12-27T15:11:20.191Z,2.70
2022-12-27T15:13:53.525Z,2.60
2022-12-27T15:16:39.600Z,3.22
2022-12-27T15:19:17.169Z,2.75
2022-12-27T15:22:06.799Z,2.08
2022-12-27T15:24:40.180Z,2.52
2022-12-27T15:27:23.417Z,2.57
2022-12-27T15:30:25.507Z,3.08
2022-12-27T15:33:00.084Z,2.92
2022-12-27T15:35:33.914Z,2.80
2022-12-27T15:38:14.368Z,2.90
2022-12-27T15:40:59.680Z,2.27
2022-12-27T15:43:38.685Z,2.75
2022-12-27T15:46:45.239Z,2.85
2022-12-27T15:49:28.547Z,2.95
2022-12-27T15:52:05.923Z,2.90
2022-12-27T15:55:04.651Z,2.75
2022-12-27T15:57:56.340Z,2.47
2022-12-27T16:00:33.974Z,2.95
2022-12-27T16:05:42.491Z,2.45
2022-12-27T16:08:28.034Z,2.50
2022-12-27T16:11:00.488Z,2.60
2022-12-27T16:13:52.148Z,2.77
2022-12-27T16:16:33.679Z,2.70
2022-12-27T16:19:20.311Z,2.95
2022-12-27T16:21:52.490Z,2.92
2022-12-27T16:24:25.884Z,2.95
2022-12-27T16:27:02.098Z,2.77
2022-12-27T16:29:38.024Z,2.75
2022-12-27T16:32:28.301Z,3.02
2022-12-27T16:35:17.164Z,3.27
2022-12-27T16:37:56.019Z,3.47
2022-12-27T16:40:29.691Z,3.62
2022-12-27T16:43:12.128Z,3.75
2022-12-27T16:45:55.440Z,3.58
2022-12-27T16:48:46.495Z,3.75
2022-12-27T16:51:42.458Z,3.80
2022-12-27T16:54:35.953Z,3.67
2022-12-27T16:57:27.382Z,3.17
2022-12-27T17:00:23.022Z,3.02
2022-12-27T17:02:53.594Z,2.90
2022-12-27T17:05:34.273Z,2.83
2022-12-27T17:08:23.398Z,2.90
2022-12-27T17:10:56.735Z,3.40
2022-12-27T17:13:48.448Z,3.30
2022-12-27T17:16:24.513Z,3.60
2022-12-27T17:19:06.861Z,3.08
2022-12-27T17:21:39.820Z,3.47
2022-12-27T17:24:13.367Z,3.22
2022-12-27T17:27:15.573Z,3.05
2022-12-27T17:30:07.642Z,2.85
2022-12-27T17:33:08.530Z,3.35
2022-12-27T17:36:02.661Z,3.22
2022-12-27T17:38:36.097Z,3.35
2022-12-27T17:42:01.541Z,3.30
2022-12-27T17:45:02.467Z,3.40
2022-12-27T17:47:51.254Z,4.00
2022-12-27T17:50:25.816Z,3.83
2022-12-27T17:53:31.458Z,3.50
2022-12-27T17:56:42.089Z,3.75
2022-12-27T17:59:30.152Z,3.25
2022-12-27T18:02:15.547Z,3.62
2022-12-27T18:04:49.019Z,4.12
2022-12-27T18:07:29.952Z,2.27
2022-12-27T18:10:10.464Z,3.17
2022-12-27T18:12:43.120Z,3.30
2022-12-27T18:15:16.660Z,3.15
2022-12-27T18:18:02.278Z,3.35
2022-12-27T18:20:36.486Z,3.33
2022-12-27T18:23:10.665Z,3.20
2022-12-27T18:28:32.205Z,2.55
2022-12-27T18:31:15.142Z,3.02
2022-12-27T18:33:54.492Z,2.67
2022-12-27T18:36:29.112Z,2.50
2022-12-27T18:39:22.478Z,2.60
2022-12-27T18:41:55.359Z,2.62
2022-12-27T18:44:28.901Z,2.75
2022-12-27T18:47:02.511Z,2.85
2022-12-27T18:49:37.038Z,3.22
2022-12-27T18:52:20.955Z,3.20
2022-12-27T18:54:51.420Z,3.20
2022-12-27T18:57:35.348Z,2.62
2022-12-27T19:00:17.742Z,2.52
2022-12-27T19:02:48.709Z,2.83
2022-12-27T19:05:25.519Z,2.60
2022-12-27T19:08:04.669Z,2.75
2022-12-27T19:10:35.322Z,3.02
2022-12-27T19:13:06.140Z,2.40
2022-12-27T19:15:42.431Z,2.42
2022-12-27T19:18:25.213Z,2.50
2022-12-27T19:21:04.841Z,2.30
2022-12-27T19:23:37.604Z,2.45
2022-12-27T19:26:20.902Z,2.42
2022-12-27T19:29:04.784Z,2.80
2022-12-27T19:31:36.515Z,2.45
2022-12-27T19:34:12.898Z,2.80
2022-12-27T19:36:46.851Z,2.55
2022-12-27T19:39:29.177Z,2.45
2022-12-27T19:42:01.870Z,2.98
2022-12-27T19:44:34.564Z,2.58
2022-12-27T19:47:05.141Z,2.55
2022-12-27T19:49:44.592Z,2.67
2022-12-27T19:52:12.233Z,2.75
2022-12-27T19:54:42.738Z,2.70
2022-12-27T19:57:13.941Z,2.77
2022-12-27T19:59:44.628Z,3.10
2022-12-27T20:02:15.305Z,2.87
2022-12-27T20:04:45.928Z,2.85
2022-12-27T20:07:23.711Z,3.12
2022-12-27T20:09:54.243Z,2.87
2022-12-27T20:12:24.695Z,2.70
2022-12-27T20:14:55.483Z,3.12
2022-12-27T20:17:28.825Z,3.25
2022-12-27T20:19:59.683Z,2.62
2022-12-27T20:22:30.132Z,2.70
2022-12-27T20:25:01.876Z,2.77
2022-12-27T20:27:32.310Z,2.62
2022-12-27T20:30:02.805Z,2.95
2022-12-27T20:32:33.294Z,2.62
2022-12-27T20:35:03.856Z,2.92
2022-12-27T20:37:35.601Z,3.62
2022-12-27T20:40:07.734Z,3.75
2022-12-27T20:42:38.532Z,3.40
2022-12-27T20:45:09.668Z,3.70
2022-12-27T20:47:40.182Z,3.45
2022-12-27T20:50:12.346Z,3.25
2022-12-27T20:52:42.845Z,3.45
2022-12-27T20:55:14.315Z,3.58
2022-12-27T20:57:44.821Z,3.22
2022-12-27T21:00:16.435Z,3.30
2022-12-27T21:02:48.799Z,3.22
2022-12-27T21:05:20.279Z,3.17
2022-12-27T21:07:52.199Z,3.00
2022-12-27T21:10:24.144Z,3.80
2022-12-27T21:12:55.903Z,4.28
2022-12-27T21:15:26.519Z,4.28
2022-12-27T21:17:58.490Z,4.28
2022-12-27T21:20:30.551Z,3.87
2022-12-27T21:23:02.152Z,3.45
2022-12-27T21:25:33.670Z,3.92
2022-12-27T21:28:05.897Z,3.90
2022-12-27T21:30:37.774Z,3.75
2022-12-27T21:33:09.548Z,4.67
2022-12-27T21:35:41.240Z,3.70
2022-12-27T21:38:12.848Z,3.80
2022-12-27T21:40:43.343Z,4.10
2022-12-27T21:43:15.038Z,3.55
2022-12-27T21:45:45.552Z,4.35
2022-12-27T21:48:16.038Z,4.45
2022-12-27T21:50:46.970Z,3.98
2022-12-27T21:53:21.057Z,4.12
2022-12-27T21:55:54.500Z,3.83
2022-12-27T21:58:25.063Z,4.20
2022-12-27T22:00:59.776Z,4.47
2022-12-27T22:03:36.614Z,3.67
2022-12-27T22:06:18.694Z,4.20
2022-12-27T22:08:52.116Z,4.30
2022-12-27T22:11:26.661Z,4.00
2022-12-27T22:13:57.554Z,4.20
2022-12-27T22:16:33.159Z,4.12
2022-12-27T22:19:09.468Z,4.33
2022-12-27T22:21:42.219Z,4.22
2022-12-27T22:24:21.196Z,4.25
2022-12-27T22:26:53.633Z,3.90
2022-12-27T22:29:25.072Z,4.10
2022-12-27T22:31:55.653Z,4.12
2022-12-27T22:34:26.429Z,4.42
2022-12-27T22:36:56.937Z,4.08
2022-12-27T22:39:29.439Z,4.40
2022-12-27T22:41:59.978Z,4.10
2022-12-27T22:44:31.133Z,4.45
2022-12-27T22:49:35.082Z,4.40
2022-12-27T22:52:07.043Z,5.20
2022-12-27T22:55:04.296Z,5.10
2022-12-27T22:57:10.143Z,4.80
2022-12-27T22:59:40.617Z,4.87
2022-12-27T23:02:14.360Z,4.72
2022-12-27T23:04:46.507Z,4.95
2022-12-27T23:07:18.700Z,5.10
2022-12-27T23:09:49.387Z,5.90
2022-12-27T23:12:24.409Z,5.35
2022-12-27T23:14:56.191Z,5.70
2022-12-27T23:17:28.036Z,6.50
2022-12-27T23:20:00.113Z,6.35
2022-12-27T23:22:35.232Z,6.42
2022-12-27T23:25:09.047Z,6.85
2022-12-27T23:27:42.312Z,6.87
2022-12-27T23:30:14.513Z,7.35
2022-12-27T23:32:45.178Z,6.83
2022-12-27T23:35:15.754Z,7.20
2022-12-27T23:37:46.346Z,6.62
2022-12-27T23:40:20.387Z,6.50
2022-12-27T23:42:52.185Z,6.87
2022-12-27T23:45:24.014Z,7.15
2022-12-27T23:47:55.776Z,7.15
2022-12-27T23:50:26.338Z,7.53
2022-12-27T23:52:58.201Z,6.87
2022-12-27T23:55:29.844Z,7.50
2022-12-27T23:58:00.541Z,7.35
